createdAt,value
2018-09-17T00:01:10.188Z,86.52
2018-09-17T00:03:39.188Z,86.36
2018-09-17T00:06:07.673Z,86.74
2018-09-17T00:08:35.803Z,87.20
2018-09-17T00:11:04.081Z,87.11
2018-09-17T00:13:32.240Z,87.45
2018-09-17T00:16:00.350Z,87.39
2018-09-17T00:18:28.480Z,87.92
2018-09-17T00:20:56.630Z,88.20
2018-09-17T00:23:24.707Z,88.15
2018-09-17T00:25:52.819Z,88.46
2018-09-17T00:28:20.963Z,88.11
2018-09-17T00:30:49.165Z,88.26
2018-09-17T00:33:17.278Z,88.14
2018-09-17T00:35:45.399Z,88.03
2018-09-17T00:38:13.477Z,88.02
2018-09-17T00:40:41.587Z,87.47
2018-09-17T00:43:09.776Z,87.60
2018-09-17T00:45:37.927Z,87.52
2018-09-17T00:48:06.115Z,87.65
2018-09-17T00:50:34.213Z,87.77
2018-09-17T00:53:02.349Z,88.07
2018-09-17T00:55:30.486Z,88.05
2018-09-17T00:57:58.647Z,88.16
2018-09-17T01:00:26.756Z,88.03
2018-09-17T01:02:54.890Z,88.57
2018-09-17T01:05:23.033Z,88.31
2018-09-17T01:07:51.168Z,88.63
2018-09-17T01:10:19.248Z,88.95
2018-09-17T01:12:47.346Z,88.70
2018-09-17T01:15:15.486Z,88.40
2018-09-17T01:17:43.618Z,88.31
2018-09-17T01:20:11.788Z,87.90
2018-09-17T01:22:39.905Z,87.61
2018-09-17T01:25:08.007Z,87.46
2018-09-17T01:27:36.068Z,87.44
2018-09-17T01:30:04.169Z,87.42
2018-09-17T01:32:32.261Z,86.95
2018-09-17T01:35:00.416Z,86.93
2018-09-17T01:37:28.585Z,86.49
2018-09-17T01:39:56.857Z,86.83
2018-09-17T01:42:24.979Z,86.92
2018-09-17T01:44:53.136Z,87.33
2018-09-17T01:47:21.251Z,87.73
2018-09-17T01:49:49.380Z,88.08
2018-09-17T01:52:17.559Z,89.10
2018-09-17T01:54:45.801Z,88.79
2018-09-17T01:57:13.894Z,88.98
2018-09-17T01:59:42.063Z,88.85
2018-09-17T02:02:10.573Z,89.36
2018-09-17T02:04:39.072Z,89.21
2018-09-17T02:07:07.525Z,89.84
2018-09-17T02:09:39.813Z,89.61
2018-09-17T02:12:09.540Z,89.46
2018-09-17T02:14:37.742Z,89.31
2018-09-17T02:17:06.278Z,89.22
2018-09-17T02:19:34.451Z,88.96
2018-09-17T02:22:02.598Z,89.51
2018-09-17T02:24:30.722Z,89.68
2018-09-17T02:26:58.980Z,89.49
2018-09-17T02:29:27.111Z,89.35
2018-09-17T02:31:55.353Z,89.46
2018-09-17T02:34:23.515Z,89.76
2018-09-17T02:36:51.844Z,90.01
2018-09-17T02:39:19.963Z,89.37
2018-09-17T02:41:48.067Z,89.36
2018-09-17T02:44:16.149Z,89.79
2018-09-17T02:46:44.271Z,89.87
2018-09-17T02:49:13.027Z,89.54
2018-09-17T02:51:41.270Z,88.98
2018-09-17T02:54:09.373Z,89.08
2018-09-17T02:56:37.501Z,88.94
2018-09-17T02:59:05.732Z,88.72
2018-09-17T03:01:33.816Z,88.47
2018-09-17T03:04:01.945Z,88.85
2018-09-17T03:06:30.135Z,88.51
2018-09-17T03:08:58.255Z,88.58
2018-09-17T03:11:26.372Z,88.76
2018-09-17T03:13:54.541Z,87.74
2018-09-17T03:16:22.668Z,87.87
2018-09-17T03:18:55.455Z,88.03
2018-09-17T03:21:23.651Z,88.30
2018-09-17T03:23:51.804Z,88.14
2018-09-17T03:26:20.338Z,89.31
2018-09-17T03:28:48.879Z,89.54
2018-09-17T03:31:17.036Z,89.82
2018-09-17T03:33:45.232Z,89.13
2018-09-17T03:36:13.408Z,89.00
2018-09-17T03:45:44.024Z,89.95
2018-09-17T03:48:12.163Z,90.05
2018-09-17T03:50:40.291Z,90.52
2018-09-17T03:53:08.447Z,90.34
2018-09-17T03:55:36.567Z,90.93
2018-09-17T03:58:04.688Z,90.69
2018-09-17T04:00:32.765Z,91.08
2018-09-17T04:03:00.905Z,91.04
2018-09-17T04:05:29.024Z,91.39
2018-09-17T04:07:57.161Z,91.11
2018-09-17T04:10:25.396Z,91.20
2018-09-17T04:12:53.558Z,91.34
2018-09-17T04:15:21.764Z,91.47
2018-09-17T04:17:49.927Z,91.87
2018-09-17T04:20:18.057Z,91.82
2018-09-17T04:22:46.167Z,92.01
2018-09-17T04:25:14.860Z,91.64
2018-09-17T04:27:43.003Z,91.48
2018-09-17T04:30:11.106Z,91.75
2018-09-17T04:32:39.176Z,91.58
2018-09-17T04:35:08.003Z,91.27
2018-09-17T04:37:37.584Z,91.51
2018-09-17T04:40:05.979Z,91.32
2018-09-17T04:42:34.287Z,91.64
2018-09-17T04:45:02.364Z,91.48
2018-09-17T04:47:30.455Z,91.47
2018-09-17T04:49:58.586Z,91.62
2018-09-17T04:52:26.738Z,91.50
2018-09-17T04:54:54.895Z,91.74
2018-09-17T04:57:23.097Z,92.13
2018-09-17T04:59:51.184Z,92.13
2018-09-17T05:02:19.307Z,92.17
2018-09-17T05:04:47.454Z,92.53
2018-09-17T05:07:15.614Z,92.42
2018-09-17T05:09:43.725Z,92.45
2018-09-17T05:12:11.831Z,92.26
2018-09-17T05:14:39.955Z,92.04
2018-09-17T05:17:08.064Z,91.31
2018-09-17T05:19:36.175Z,91.58
2018-09-17T05:22:04.281Z,91.54
2018-09-17T05:24:32.376Z,91.21
2018-09-17T05:27:00.511Z,90.97
2018-09-17T05:29:28.623Z,90.55
2018-09-17T05:31:56.899Z,90.92
2018-09-17T05:34:25.043Z,90.23
2018-09-17T05:36:53.155Z,89.72
2018-09-17T05:39:21.331Z,90.13
2018-09-17T05:41:49.443Z,90.19
2018-09-17T05:44:17.682Z,90.41
2018-09-17T05:46:45.807Z,89.72
2018-09-17T05:49:13.900Z,90.33
2018-09-17T05:51:42.059Z,90.19
2018-09-17T05:54:10.245Z,90.46
2018-09-17T05:56:38.370Z,90.48
2018-09-17T05:59:06.565Z,90.40
2018-09-17T06:01:34.711Z,90.32
2018-09-17T06:11:02.312Z,88.80
2018-09-17T06:13:30.440Z,87.84
2018-09-17T06:15:58.541Z,88.06
2018-09-17T06:18:26.698Z,88.18
2018-09-17T06:20:54.827Z,88.70
2018-09-17T06:23:23.006Z,87.71
2018-09-17T06:25:51.053Z,87.63
2018-09-17T06:28:19.256Z,86.91
2018-09-17T06:30:47.382Z,86.02
2018-09-17T06:33:15.593Z,86.04
2018-09-17T06:35:43.742Z,86.02
2018-09-17T06:38:11.875Z,86.34
2018-09-17T06:40:40.008Z,86.20
2018-09-17T06:43:08.317Z,85.59
2018-09-17T06:45:36.464Z,85.99
2018-09-17T06:48:04.539Z,86.36
2018-09-17T06:50:32.757Z,85.41
2018-09-17T06:53:00.949Z,85.22
2018-09-17T06:55:29.093Z,85.06
2018-09-17T06:57:57.249Z,85.00
2018-09-17T07:00:25.447Z,85.49
2018-09-17T07:02:53.589Z,84.75
2018-09-17T07:05:21.743Z,84.15
2018-09-17T07:07:49.892Z,85.01
2018-09-17T07:10:18.022Z,84.20
2018-09-17T07:12:46.155Z,83.86
2018-09-17T07:15:14.268Z,84.09
2018-09-17T07:17:42.364Z,83.45
2018-09-17T07:20:10.467Z,82.18
2018-09-17T07:22:38.585Z,82.07
2018-09-17T07:25:06.955Z,80.97
2018-09-17T07:27:34.986Z,80.69
2018-09-17T07:30:03.130Z,78.39
2018-09-17T07:32:31.257Z,78.06
2018-09-17T07:34:59.406Z,77.99
2018-09-17T07:37:27.508Z,77.63
2018-09-17T07:39:56.119Z,78.39
2018-09-17T07:42:24.214Z,79.07
2018-09-17T07:44:52.327Z,79.24
2018-09-17T07:47:20.566Z,78.12
2018-09-17T07:49:49.730Z,77.22
2018-09-17T07:52:17.906Z,77.19
2018-09-17T07:54:46.030Z,76.74
2018-09-17T07:57:14.152Z,76.59
2018-09-17T07:59:42.278Z,75.83
2018-09-17T08:02:10.437Z,75.17
2018-09-17T08:04:38.596Z,74.71
2018-09-17T08:07:06.775Z,73.81
2018-09-17T08:09:34.889Z,73.43
2018-09-17T08:12:03.034Z,73.28
2018-09-17T08:14:31.179Z,72.14
2018-09-17T08:16:59.355Z,72.76
2018-09-17T08:19:27.404Z,71.22
2018-09-17T08:21:55.531Z,71.55
2018-09-17T08:24:23.696Z,71.08
2018-09-17T08:26:51.868Z,70.30
2018-09-17T08:29:19.991Z,69.81
2018-09-17T08:31:48.172Z,69.99
2018-09-17T08:34:16.305Z,69.02
2018-09-17T08:36:44.436Z,68.80
2018-09-17T08:39:13.675Z,68.61
2018-09-17T08:41:42.271Z,68.18
2018-09-17T08:44:11.257Z,67.85
2018-09-17T08:46:39.435Z,67.77
2018-09-17T08:49:07.718Z,67.62
2018-09-17T08:51:35.847Z,67.73
2018-09-17T08:54:03.956Z,67.46
2018-09-17T08:56:37.347Z,67.15
2018-09-17T08:59:05.979Z,66.91
2018-09-17T09:01:39.572Z,66.52
2018-09-17T09:04:17.588Z,66.02
2018-09-17T09:06:52.504Z,65.98
2018-09-17T09:09:20.610Z,67.26
2018-09-17T09:12:54.919Z,66.57
2018-09-17T09:15:27.200Z,65.71
2018-09-17T09:17:55.329Z,66.60
2018-09-17T09:20:23.446Z,66.41
2018-09-17T09:22:51.577Z,65.94
2018-09-17T09:25:19.670Z,65.45
2018-09-17T09:27:47.811Z,65.54
2018-09-17T09:30:15.957Z,65.14
2018-09-17T09:32:44.072Z,66.07
2018-09-17T09:35:12.227Z,64.35
2018-09-17T09:37:40.399Z,64.34
2018-09-17T09:40:08.500Z,63.79
2018-09-17T09:42:36.683Z,63.03
2018-09-17T09:45:04.827Z,62.17
2018-09-17T09:47:32.956Z,62.89
2018-09-17T09:50:01.094Z,64.79
2018-09-17T09:52:29.163Z,62.69
2018-09-17T09:54:57.266Z,62.89
2018-09-17T09:57:25.417Z,63.44
2018-09-17T09:59:53.520Z,62.78
2018-09-17T10:02:27.050Z,62.17
2018-09-17T10:04:55.178Z,63.22
2018-09-17T10:07:23.286Z,61.12
2018-09-17T10:09:56.905Z,62.25
2018-09-17T10:12:30.317Z,62.67
2018-09-17T10:15:03.819Z,61.72
2018-09-17T10:17:37.396Z,61.94
2018-09-17T10:20:05.794Z,60.66
2018-09-17T10:22:33.892Z,61.10
2018-09-17T10:25:02.049Z,59.29
2018-09-17T10:27:30.152Z,60.27
2018-09-17T10:29:58.374Z,59.65
2018-09-17T10:32:26.392Z,59.26
2018-09-17T10:34:54.555Z,59.57
2018-09-17T10:37:22.760Z,58.60
2018-09-17T10:39:50.900Z,59.00
2018-09-17T10:42:19.016Z,58.46
2018-09-17T10:44:47.130Z,59.42
2018-09-17T10:47:15.189Z,59.64
2018-09-17T10:49:43.359Z,59.05
2018-09-17T10:52:11.458Z,59.08
2018-09-17T10:54:39.548Z,59.31
2018-09-17T10:57:07.710Z,59.34
2018-09-17T10:59:35.817Z,58.29
2018-09-17T11:02:03.942Z,58.80
2018-09-17T11:04:32.015Z,58.37
2018-09-17T11:07:00.103Z,57.58
2018-09-17T11:09:28.429Z,56.93
2018-09-17T11:11:56.574Z,55.72
2018-09-17T11:14:24.715Z,56.63
2018-09-17T11:16:52.897Z,56.96
2018-09-17T11:19:21.014Z,55.44
2018-09-17T11:21:49.166Z,55.53
2018-09-17T11:24:17.324Z,55.67
2018-09-17T11:26:45.515Z,54.29
2018-09-17T11:29:13.684Z,54.43
2018-09-17T11:31:41.817Z,55.43
2018-09-17T11:34:09.985Z,55.50
2018-09-17T11:36:38.230Z,56.36
2018-09-17T11:39:08.106Z,55.97
2018-09-17T11:41:36.223Z,55.46
2018-09-17T11:44:04.326Z,55.03
2018-09-17T11:46:32.533Z,56.04
2018-09-17T11:49:00.619Z,55.25
2018-09-17T11:51:28.739Z,56.01
2018-09-17T11:53:56.930Z,54.62
2018-09-17T11:56:24.989Z,53.26
2018-09-17T11:58:53.074Z,53.07
2018-09-17T12:01:25.350Z,52.50
2018-09-17T12:03:59.043Z,53.83
2018-09-17T12:06:32.504Z,53.54
2018-09-17T12:09:00.517Z,53.09
2018-09-17T12:11:28.596Z,52.40
2018-09-17T12:13:56.704Z,50.44
2018-09-17T12:16:24.818Z,51.01
2018-09-17T12:18:52.904Z,49.96
2018-09-17T12:21:21.047Z,50.58
2018-09-17T12:23:49.188Z,50.21
2018-09-17T12:26:17.295Z,50.19
2018-09-17T12:28:45.408Z,51.85
2018-09-17T12:31:13.542Z,50.95
2018-09-17T12:33:42.286Z,49.79
2018-09-17T12:36:10.393Z,49.98
2018-09-17T12:38:38.498Z,49.57
2018-09-17T12:41:06.854Z,49.49
2018-09-17T12:43:34.990Z,50.60
2018-09-17T12:46:03.087Z,50.55
2018-09-17T12:48:31.161Z,50.33
2018-09-17T12:50:59.240Z,49.97
2018-09-17T12:53:27.339Z,49.61
2018-09-17T12:55:55.472Z,50.03
2018-09-17T12:58:23.521Z,50.68
2018-09-17T13:00:51.659Z,48.73
2018-09-17T13:03:19.835Z,49.80
2018-09-17T13:05:47.893Z,50.45
2018-09-17T13:08:15.991Z,49.39
2018-09-17T13:10:44.123Z,49.66
2018-09-17T13:13:12.268Z,48.97
2018-09-17T13:15:45.693Z,49.00
2018-09-17T13:18:13.895Z,48.81
2018-09-17T13:20:42.112Z,48.90
2018-09-17T13:23:10.241Z,48.33
2018-09-17T13:25:38.339Z,49.54
2018-09-17T13:28:06.540Z,47.48
2018-09-17T13:30:34.672Z,48.62
2018-09-17T13:33:02.853Z,48.26
2018-09-17T13:35:30.951Z,47.94
2018-09-17T13:37:59.103Z,49.26
2018-09-17T13:40:27.203Z,48.72
2018-09-17T13:42:55.348Z,49.88
2018-09-17T13:45:23.426Z,48.05
2018-09-17T13:47:51.520Z,48.19
2018-09-17T13:50:19.639Z,47.65
2018-09-17T13:52:47.834Z,47.61
2018-09-17T13:55:15.918Z,48.84
2018-09-17T13:57:43.991Z,47.91
2018-09-17T14:00:12.121Z,48.43
2018-09-17T14:02:40.208Z,48.98
2018-09-17T14:05:08.941Z,49.84
2018-09-17T14:07:37.203Z,49.26
2018-09-17T14:10:05.762Z,47.57
2018-09-17T14:12:33.795Z,48.05
2018-09-17T14:15:01.919Z,47.81
2018-09-17T14:17:30.108Z,47.12
2018-09-17T14:19:58.209Z,49.05
2018-09-17T14:22:26.335Z,48.72
2018-09-17T14:24:54.512Z,47.97
2018-09-17T14:27:22.624Z,49.03
2018-09-17T14:29:50.783Z,50.55
2018-09-17T14:32:24.242Z,48.17
2018-09-17T14:34:52.315Z,48.21
2018-09-17T14:37:20.408Z,48.32
2018-09-17T14:39:48.584Z,48.97
2018-09-17T14:42:16.687Z,49.81
2018-09-17T14:47:29.658Z,49.35
2018-09-17T14:49:57.753Z,47.08
2018-09-17T14:52:25.970Z,48.88
2018-09-17T14:54:53.994Z,48.88
2018-09-17T14:57:22.277Z,49.63
2018-09-17T14:59:50.418Z,50.00
2018-09-17T15:02:18.480Z,47.89
2018-09-17T15:04:46.591Z,48.61
2018-09-17T15:07:14.780Z,47.46
2018-09-17T15:09:42.924Z,48.08
2018-09-17T15:12:11.018Z,48.74
2018-09-17T15:14:39.266Z,49.98
2018-09-17T15:17:07.387Z,49.93
2018-09-17T15:19:35.537Z,48.47
2018-09-17T15:22:03.744Z,48.58
2018-09-17T15:24:31.825Z,47.51
2018-09-17T15:26:59.951Z,48.76
2018-09-17T15:29:28.096Z,49.95
2018-09-17T15:31:56.195Z,51.66
2018-09-17T15:34:24.367Z,50.16
2018-09-17T15:36:52.390Z,52.72
2018-09-17T15:39:20.593Z,52.39
2018-09-17T15:41:48.748Z,49.64
2018-09-17T15:44:17.141Z,52.92
2018-09-17T15:46:45.256Z,51.34
2018-09-17T15:49:13.500Z,50.20
2018-09-17T15:51:41.992Z,50.99
2018-09-17T15:54:10.250Z,51.14
2018-09-17T15:56:38.436Z,50.53
2018-09-17T15:59:06.719Z,50.62
2018-09-17T16:01:34.897Z,52.29
2018-09-17T16:04:03.048Z,52.74
2018-09-17T16:06:31.288Z,51.87
2018-09-17T16:08:59.483Z,50.66
2018-09-17T16:11:27.821Z,54.86
2018-09-17T16:13:55.920Z,54.23
2018-09-17T16:16:24.207Z,54.37
2018-09-17T16:18:52.524Z,54.64
2018-09-17T16:21:20.775Z,54.16
2018-09-17T16:23:49.084Z,53.40
2018-09-17T16:26:17.343Z,53.52
2018-09-17T16:28:45.584Z,54.73
2018-09-17T16:31:13.770Z,54.63
2018-09-17T16:33:42.694Z,54.97
2018-09-17T16:36:10.842Z,54.70
2018-09-17T16:38:39.009Z,56.40
2018-09-17T16:41:07.171Z,56.71
2018-09-17T16:43:35.386Z,56.30
2018-09-17T16:46:03.519Z,56.31
2018-09-17T16:48:31.660Z,56.50
2018-09-17T16:50:59.772Z,57.00
2018-09-17T16:53:28.262Z,56.16
2018-09-17T16:56:01.362Z,56.94
2018-09-17T16:58:29.758Z,57.98
2018-09-17T17:00:57.896Z,57.92
2018-09-17T17:03:25.963Z,58.36
2018-09-17T17:05:54.091Z,58.69
2018-09-17T17:08:22.177Z,60.05
2018-09-17T17:10:50.416Z,60.94
2018-09-17T17:13:18.580Z,61.89
2018-09-17T17:15:48.316Z,62.07
2018-09-17T17:18:17.679Z,62.14
2018-09-17T17:20:46.355Z,63.03
2018-09-17T17:23:14.575Z,64.19
2018-09-17T17:25:42.811Z,64.37
2018-09-17T17:28:11.061Z,65.01
2018-09-17T17:30:39.142Z,64.60
2018-09-17T17:33:07.324Z,65.70
2018-09-17T17:35:36.136Z,67.07
2018-09-17T17:38:04.230Z,68.19
2018-09-17T17:40:32.520Z,69.03
2018-09-17T17:43:00.415Z,71.24
2018-09-17T17:45:28.608Z,70.48
2018-09-17T17:47:56.723Z,70.59
2018-09-17T17:50:24.825Z,70.18
2018-09-17T17:52:52.986Z,70.29
2018-09-17T17:55:21.124Z,70.46
2018-09-17T17:57:49.210Z,71.03
2018-09-17T18:00:17.488Z,70.62
2018-09-17T18:02:45.598Z,71.47
2018-09-17T18:05:13.697Z,71.62
2018-09-17T18:07:41.834Z,72.71
2018-09-17T18:10:09.918Z,71.95
2018-09-17T18:12:38.052Z,74.05
2018-09-17T18:15:06.144Z,76.88
2018-09-17T18:17:34.315Z,77.20
2018-09-17T18:20:02.436Z,78.32
2018-09-17T18:22:30.516Z,76.90
2018-09-17T18:24:58.620Z,77.84
2018-09-17T18:27:26.756Z,77.95
2018-09-17T18:29:54.792Z,78.00
2018-09-17T18:32:22.863Z,78.36
2018-09-17T18:34:50.997Z,77.71
2018-09-17T18:37:19.096Z,79.65
2018-09-17T18:39:47.428Z,79.08
2018-09-17T18:42:15.303Z,80.89
2018-09-17T18:44:43.436Z,79.65
2018-09-17T18:47:11.505Z,78.75
2018-09-17T18:49:39.780Z,80.64
2018-09-17T18:52:07.893Z,81.80
2018-09-17T18:54:36.029Z,82.36
2018-09-17T18:57:04.145Z,80.39
2018-09-17T18:59:38.069Z,81.42
2018-09-17T19:02:06.348Z,81.37
2018-09-17T19:04:34.663Z,81.41
2018-09-17T19:07:02.894Z,80.10
2018-09-17T19:09:36.321Z,80.50
2018-09-17T19:12:04.621Z,80.29
2018-09-17T19:14:38.100Z,79.74
2018-09-17T19:17:11.541Z,79.50
2018-09-17T19:19:39.694Z,79.86
2018-09-17T19:22:13.164Z,80.43
2018-09-17T19:24:41.216Z,79.49
2018-09-17T19:27:09.995Z,80.84
2018-09-17T19:29:38.067Z,81.52
2018-09-17T19:32:06.338Z,81.40
2018-09-17T19:34:34.443Z,82.25
2018-09-17T19:37:07.954Z,82.81
2018-09-17T19:39:41.408Z,84.20
2018-09-17T19:42:09.516Z,84.59
2018-09-17T19:44:37.641Z,83.53
2018-09-17T19:47:05.864Z,85.35
2018-09-17T19:49:34.050Z,85.58
2018-09-17T19:52:07.634Z,85.63
2018-09-17T19:54:35.709Z,85.82
2018-09-17T19:57:08.050Z,86.47
2018-09-17T19:59:41.660Z,85.49
2018-09-17T20:02:09.911Z,85.06
2018-09-17T20:04:43.320Z,85.77
2018-09-17T20:07:11.520Z,86.46
2018-09-17T20:09:39.715Z,87.51
2018-09-17T20:12:07.821Z,86.58
2018-09-17T20:14:36.327Z,87.39
2018-09-17T20:17:04.573Z,87.39
2018-09-17T20:19:32.751Z,88.31
2018-09-17T20:22:00.905Z,87.19
2018-09-17T20:24:28.975Z,88.02
2018-09-17T20:26:57.077Z,88.87
2018-09-17T20:29:25.139Z,87.63
2018-09-17T20:31:53.247Z,86.33
2018-09-17T20:34:21.349Z,86.65
2018-09-17T20:36:49.721Z,86.73
2018-09-17T20:39:17.803Z,88.18
2018-09-17T20:41:45.900Z,88.29
2018-09-17T20:44:13.979Z,88.31
2018-09-17T20:46:42.039Z,88.91
2018-09-17T20:49:10.153Z,88.42
2018-09-17T20:51:38.231Z,89.11
2018-09-17T20:54:06.370Z,88.35
2018-09-17T20:56:34.491Z,88.86
2018-09-17T20:59:02.601Z,88.69
2018-09-17T21:01:31.407Z,88.57
2018-09-17T21:03:59.423Z,89.02
2018-09-17T21:06:27.529Z,88.73
2018-09-17T21:08:55.609Z,88.51
2018-09-17T21:11:23.692Z,88.57
2018-09-17T21:13:51.809Z,89.18
2018-09-17T21:16:19.904Z,88.64
2018-09-17T21:18:48.074Z,88.68
2018-09-17T21:21:16.149Z,89.00
2018-09-17T21:23:44.291Z,89.63
2018-09-17T21:26:12.439Z,89.69
2018-09-17T21:28:41.061Z,90.22
2018-09-17T21:31:09.214Z,90.09
2018-09-17T21:33:37.270Z,90.84
2018-09-17T21:36:05.364Z,91.17
2018-09-17T21:38:33.460Z,91.29
2018-09-17T21:41:01.546Z,91.26
2018-09-17T21:43:29.656Z,90.87
2018-09-17T21:45:57.755Z,90.65
2018-09-17T21:48:25.908Z,90.54
2018-09-17T21:50:53.992Z,90.68
2018-09-17T21:53:22.067Z,90.84
2018-09-17T21:55:50.186Z,90.10
2018-09-17T21:58:18.271Z,90.49
2018-09-17T22:00:51.757Z,89.77
2018-09-17T22:03:19.811Z,89.55
2018-09-17T22:05:47.915Z,90.04
2018-09-17T22:08:15.982Z,90.26
2018-09-17T22:10:44.099Z,89.71
2018-09-17T22:13:12.161Z,90.21
2018-09-17T22:15:40.247Z,89.89
2018-09-17T22:18:08.362Z,90.46
2018-09-17T22:20:36.459Z,90.92
2018-09-17T22:23:04.549Z,90.88
2018-09-17T22:25:32.675Z,91.09
2018-09-17T22:28:00.815Z,90.27
2018-09-17T22:30:28.920Z,89.52
2018-09-17T22:32:57.047Z,89.94
2018-09-17T22:35:25.163Z,89.35
2018-09-17T22:37:53.272Z,89.25
2018-09-17T22:40:21.390Z,89.04
2018-09-17T22:42:49.503Z,88.33
2018-09-17T22:45:17.621Z,88.35
2018-09-17T22:47:45.696Z,87.78
2018-09-17T22:50:13.799Z,87.55
2018-09-17T22:52:41.916Z,86.63
2018-09-17T22:55:10.019Z,86.94
2018-09-17T22:57:38.161Z,86.66
2018-09-17T23:00:06.332Z,85.91
2018-09-17T23:02:34.641Z,86.55
2018-09-17T23:05:02.758Z,86.77
2018-09-17T23:07:30.862Z,86.75
2018-09-17T23:09:58.977Z,87.22
2018-09-17T23:12:27.074Z,87.55
2018-09-17T23:14:55.221Z,87.37
2018-09-17T23:17:23.322Z,87.95
2018-09-17T23:19:51.457Z,88.66
2018-09-17T23:22:20.088Z,89.53
2018-09-17T23:24:48.191Z,89.54
2018-09-17T23:27:16.295Z,90.16
2018-09-17T23:29:44.407Z,90.09
2018-09-17T23:32:12.494Z,90.45
2018-09-17T23:34:40.578Z,91.17
2018-09-17T23:37:08.656Z,90.99
2018-09-17T23:39:36.751Z,90.85
2018-09-17T23:42:04.808Z,90.69
2018-09-17T23:44:32.908Z,90.76
2018-09-17T23:47:01.040Z,90.57
2018-09-17T23:49:29.165Z,90.93
2018-09-17T23:51:57.263Z,90.60
2018-09-17T23:54:25.407Z,91.31
2018-09-17T23:56:53.527Z,90.30
2018-09-17T23:59:21.649Z,90.56
